Time;durP1;ratioP1;P1;durP2;ratioP2;P2;SDS_P1;SDS_P2;PMS_P1;PMS_P2;Temp;Humidity;BMP_temperature;BMP_pressure;BME280_temperature;BME280_humidity;BME280_pressure;Samples;Min_cycle;Max_cycle;Signal;HPM_P1;HPM_P2
2023/08/02 00:00:34;;;;;;;4.85;1.85;;;20.40;99.90;;;;;;5073747;28;20491;-75
2023/08/02 00:03:00;;;;;;;5.57;2.13;;;20.40;99.90;;;;;;5074436;28;20036;-75
2023/08/02 00:05:26;;;;;;;5.15;2.25;;;20.30;99.90;;;;;;5074144;28;20029;-75
2023/08/02 00:07:51;;;;;;;4.30;1.80;;;20.40;99.90;;;;;;5075328;28;20040;-75
2023/08/02 00:10:17;;;;;;;4.20;1.83;;;20.30;99.90;;;;;;5094456;28;20020;-75
2023/08/02 00:12:43;;;;;;;5.90;2.20;;;20.30;99.90;;;;;;5094231;28;20485;-75
2023/08/02 00:15:09;;;;;;;4.47;1.95;;;20.30;99.90;;;;;;5094462;28;20103;-75
2023/08/02 00:17:34;;;;;;;4.85;2.13;;;20.30;99.90;;;;;;5093056;28;20058;-75
2023/08/02 00:20:00;;;;;;;6.03;2.25;;;20.30;99.90;;;;;;5073848;28;20048;-76
2023/08/02 00:22:25;;;;;;;5.15;2.22;;;20.20;99.90;;;;;;5073791;28;20032;-75
2023/08/02 00:24:51;;;;;;;5.13;2.65;;;20.20;99.90;;;;;;5073642;28;20031;-75
2023/08/02 00:27:17;;;;;;;6.53;2.72;;;20.20;99.90;;;;;;5072954;28;20051;-75
2023/08/02 00:29:42;;;;;;;5.95;2.38;;;20.20;99.90;;;;;;5091886;28;20028;-75
2023/08/02 00:32:08;;;;;;;5.45;2.22;;;20.20;99.90;;;;;;5093970;28;20036;-75
2023/08/02 00:34:33;;;;;;;4.07;1.98;;;20.20;99.90;;;;;;5094049;28;20529;-75
2023/08/02 00:37:00;;;;;;;6.88;2.10;;;20.20;99.90;;;;;;5089736;28;20040;-75
2023/08/02 00:39:25;;;;;;;5.13;2.45;;;20.20;99.90;;;;;;5073516;28;20484;-75
2023/08/02 00:41:51;;;;;;;4.55;1.90;;;20.20;99.90;;;;;;5073140;28;20028;-75
2023/08/02 00:44:16;;;;;;;4.22;1.75;;;20.20;99.90;;;;;;5073550;28;20163;-75
2023/08/02 00:46:42;;;;;;;4.47;2.30;;;20.30;99.90;;;;;;5072805;28;20032;-75
2023/08/02 00:49:11;;;;;;;9.00;2.85;;;20.30;99.90;;;;;;5085747;28;20032;-75
2023/08/02 00:51:36;;;;;;;4.68;2.58;;;20.20;99.90;;;;;;5093574;28;20016;-75
2023/08/02 00:54:03;;;;;;;4.07;2.40;;;20.20;99.90;;;;;;5093601;28;20024;-75
2023/08/02 00:56:32;;;;;;;5.47;2.40;;;20.20;99.90;;;;;;5093282;28;20549;-75
2023/08/02 00:58:58;;;;;;;6.28;2.60;;;20.20;99.90;;;;;;5085796;28;20016;-75
2023/08/02 01:01:24;;;;;;;5.90;2.00;;;20.20;99.90;;;;;;5089716;28;20419;-76
2023/08/02 01:03:50;;;;;;;6.30;2.55;;;20.30;99.90;;;;;;5093518;28;20085;-75
2023/08/02 01:06:50;;;;;;;4.80;2.40;;;20.30;99.90;;;;;;5093353;28;20022;-75
2023/08/02 01:09:40;;;;;;;6.03;2.13;;;20.30;99.90;;;;;;5073781;28;20024;-75
2023/08/02 01:12:10;;;;;;;5.20;2.53;;;20.20;99.90;;;;;;5072008;28;20056;-75
2023/08/02 01:14:49;;;;;;;6.28;2.75;;;20.20;99.90;;;;;;5073253;28;20066;-75
2023/08/02 01:17:15;;;;;;;4.97;2.33;;;20.10;99.90;;;;;;5080980;28;20435;-75
2023/08/02 01:19:42;;;;;;;5.07;2.30;;;20.10;99.90;;;;;;5071259;28;20432;-75
2023/08/02 01:22:08;;;;;;;5.63;2.40;;;20.10;99.90;;;;;;5088452;28;20496;-75
2023/08/02 01:24:35;;;;;;;6.68;2.58;;;20.20;99.90;;;;;;5073026;28;20111;-75
2023/08/02 01:27:25;;;;;;;3.85;2.45;;;20.10;99.90;;;;;;5072529;28;20020;-75
2023/08/02 01:29:52;;;;;;;5.10;2.63;;;20.20;99.90;;;;;;5073066;28;20048;-75
2023/08/02 01:32:21;;;;;;;5.93;2.38;;;20.20;99.90;;;;;;5073011;28;20043;-75
2023/08/02 01:34:48;;;;;;;4.90;2.30;;;20.20;99.90;;;;;;5072958;28;20486;-75
2023/08/02 01:37:14;;;;;;;5.60;2.28;;;20.20;99.90;;;;;;5072251;28;20500;-75
2023/08/02 01:39:40;;;;;;;5.82;2.13;;;20.20;99.90;;;;;;5072731;28;20404;-75
2023/08/02 01:42:05;;;;;;;7.38;2.78;;;20.20;99.90;;;;;;5072704;28;20537;-75
2023/08/02 01:44:31;;;;;;;11.00;2.50;;;20.20;99.90;;;;;;5073032;28;20534;-75
2023/08/02 01:46:57;;;;;;;4.63;2.00;;;20.20;99.90;;;;;;5084507;28;20067;-76
2023/08/02 01:49:22;;;;;;;4.10;1.83;;;20.20;99.90;;;;;;5083458;28;20040;-75
2023/08/02 01:51:48;;;;;;;5.20;2.50;;;20.20;99.90;;;;;;5072081;28;20017;-75
2023/08/02 01:54:14;;;;;;;10.57;2.55;;;20.20;99.90;;;;;;5071204;28;20032;-76
2023/08/02 01:56:39;;;;;;;6.28;2.40;;;20.10;99.90;;;;;;5073005;28;20021;-76
2023/08/02 01:59:05;;;;;;;4.85;2.30;;;20.10;99.90;;;;;;5072927;28;20025;-75
2023/08/02 02:01:31;;;;;;;6.03;2.42;;;20.00;99.90;;;;;;5072753;28;20041;-75
2023/08/02 02:03:56;;;;;;;6.10;3.10;;;20.00;99.90;;;;;;5072482;28;20027;-76
2023/08/02 02:06:22;;;;;;;4.95;2.25;;;20.00;99.90;;;;;;5072473;28;20024;-76
2023/08/02 02:08:48;;;;;;;3.55;2.30;;;20.00;99.90;;;;;;5079044;28;20473;-76
2023/08/02 02:11:14;;;;;;;4.63;2.10;;;20.00;99.90;;;;;;5083256;28;20017;-76
2023/08/02 02:13:40;;;;;;;4.75;2.50;;;20.00;99.90;;;;;;5073219;28;20068;-76
2023/08/02 02:16:05;;;;;;;4.68;2.38;;;20.00;99.90;;;;;;5073417;28;20020;-75
2023/08/02 02:18:31;;;;;;;4.82;2.20;;;20.00;99.90;;;;;;5089200;28;20024;-76
2023/08/02 02:20:56;;;;;;;4.10;1.98;;;20.00;99.90;;;;;;5092276;28;20020;-75
2023/08/02 02:23:22;;;;;;;3.75;2.20;;;20.00;99.90;;;;;;5093277;28;20127;-76
2023/08/02 02:25:48;;;;;;;4.75;2.35;;;20.00;99.90;;;;;;5094517;28;20024;-75
2023/08/02 02:28:13;;;;;;;3.90;1.92;;;20.00;99.90;;;;;;5095367;28;20436;-75
2023/08/02 02:30:42;;;;;;;4.88;2.20;;;19.90;99.90;;;;;;5096339;28;20024;-75
2023/08/02 02:33:08;;;;;;;6.00;2.22;;;19.90;99.90;;;;;;5096408;28;20043;-76
2023/08/02 02:35:33;;;;;;;5.43;2.08;;;19.90;99.90;;;;;;5096350;28;20020;-75
2023/08/02 02:37:59;;;;;;;3.97;2.58;;;19.90;99.90;;;;;;5076072;28;20024;-76
2023/08/02 02:40:24;;;;;;;4.78;2.45;;;19.90;99.90;;;;;;5076019;28;20154;-75
2023/08/02 02:42:50;;;;;;;3.03;1.90;;;19.80;99.90;;;;;;5075822;28;20031;-75
2023/08/02 02:45:16;;;;;;;5.32;2.33;;;19.90;99.90;;;;;;5075722;28;20098;-75
2023/08/02 02:47:41;;;;;;;7.70;2.33;;;19.90;99.90;;;;;;5090804;28;20028;-75
2023/08/02 02:50:07;;;;;;;3.53;1.80;;;19.90;99.90;;;;;;5095093;28;20051;-76
2023/08/02 02:52:33;;;;;;;3.33;2.15;;;20.00;99.90;;;;;;5095793;28;20020;-76
2023/08/02 02:54:58;;;;;;;3.83;1.92;;;20.00;99.90;;;;;;5095810;28;20388;-75
2023/08/02 02:57:24;;;;;;;3.53;2.05;;;20.00;99.90;;;;;;5081758;28;20067;-75
2023/08/02 02:59:50;;;;;;;4.05;2.42;;;19.90;99.90;;;;;;5075371;28;20036;-75
2023/08/02 03:02:16;;;;;;;3.53;1.90;;;19.90;99.90;;;;;;5075255;28;20432;-75
2023/08/02 03:04:42;;;;;;;5.07;2.42;;;19.90;99.90;;;;;;5075528;28;20485;-75
2023/08/02 03:07:07;;;;;;;5.07;2.45;;;19.90;99.90;;;;;;5074695;28;20039;-75
2023/08/02 03:09:33;;;;;;;2.85;1.77;;;19.90;99.90;;;;;;5075277;28;20099;-75
2023/08/02 03:11:58;;;;;;;4.25;1.77;;;20.00;99.90;;;;;;5074732;28;20028;-75
2023/08/02 03:14:24;;;;;;;3.92;2.40;;;20.00;99.90;;;;;;5090106;28;20024;-75
2023/08/02 03:16:49;;;;;;;3.53;2.05;;;19.90;99.90;;;;;;5092777;28;20039;-75
2023/08/02 03:19:15;;;;;;;3.85;2.25;;;19.90;99.90;;;;;;5075073;28;20103;-75
2023/08/02 03:21:43;;;;;;;3.20;2.15;;;19.80;99.90;;;;;;5075045;28;20036;-75
2023/08/02 03:24:09;;;;;;;4.63;2.70;;;19.90;99.90;;;;;;5074864;28;20017;-75
2023/08/02 03:26:34;;;;;;;4.32;2.47;;;19.80;99.90;;;;;;5075049;28;20032;-75
2023/08/02 03:29:00;;;;;;;3.78;2.60;;;19.80;99.90;;;;;;5074974;28;20166;-75
2023/08/02 03:31:25;;;;;;;2.92;2.08;;;19.80;99.90;;;;;;5075044;28;20047;-75
2023/08/02 03:33:51;;;;;;;2.95;2.30;;;19.80;99.90;;;;;;5074793;28;20477;-76
2023/08/02 03:36:17;;;;;;;4.70;2.40;;;19.80;99.90;;;;;;5073798;28;20025;-75
2023/08/02 03:38:42;;;;;;;4.85;2.65;;;19.80;99.90;;;;;;5075293;28;20043;-75
2023/08/02 03:41:08;;;;;;;3.72;2.22;;;19.80;99.90;;;;;;5093623;28;20364;-75
2023/08/02 03:43:34;;;;;;;4.88;2.47;;;19.90;99.90;;;;;;5095040;28;20050;-76
2023/08/02 03:46:01;;;;;;;5.30;2.45;;;19.90;99.90;;;;;;5094739;28;20532;-75
2023/08/02 03:48:28;;;;;;;4.40;2.13;;;19.90;99.90;;;;;;5089435;28;20085;-76
2023/08/02 03:50:58;;;;;;;5.10;2.50;;;19.90;99.90;;;;;;5093276;28;20051;-76
2023/08/02 03:53:25;;;;;;;4.88;2.50;;;19.90;99.90;;;;;;5094756;28;20028;-75
2023/08/02 03:55:50;;;;;;;4.70;2.60;;;19.90;99.90;;;;;;5091431;28;20055;-75
2023/08/02 03:58:16;;;;;;;2.53;2.03;;;19.90;99.90;;;;;;5085236;28;20060;-75
2023/08/02 04:00:42;;;;;;;3.10;2.22;;;19.90;99.90;;;;;;5086026;28;20534;-76
2023/08/02 04:03:07;;;;;;;3.15;2.15;;;19.90;99.90;;;;;;5094723;28;20058;-76
2023/08/02 04:05:33;;;;;;;4.82;2.00;;;19.90;99.90;;;;;;5093970;28;20028;-75
2023/08/02 04:07:58;;;;;;;5.25;2.75;;;19.90;99.90;;;;;;5089632;28;20107;-75
2023/08/02 04:10:24;;;;;;;4.05;2.33;;;19.90;99.90;;;;;;5094569;28;20182;-75
2023/08/02 04:12:53;;;;;;;3.00;2.20;;;19.80;99.90;;;;;;5095658;28;20020;-75
2023/08/02 04:15:18;;;;;;;3.30;2.20;;;19.90;99.90;;;;;;5081014;28;20053;-75
2023/08/02 04:17:44;;;;;;;3.15;2.42;;;19.90;99.90;;;;;;5073940;28;20477;-75
2023/08/02 04:20:10;;;;;;;3.90;1.88;;;19.80;99.90;;;;;;5073658;28;20492;-75
2023/08/02 04:22:36;;;;;;;3.33;2.00;;;19.90;99.90;;;;;;5074058;28;20052;-75
2023/08/02 04:25:03;;;;;;;3.60;2.03;;;19.90;99.90;;;;;;5075746;28;20125;-75
2023/08/02 04:27:29;;;;;;;3.20;1.83;;;19.90;99.90;;;;;;5093153;28;20431;-75
2023/08/02 04:29:55;;;;;;;3.35;1.90;;;19.90;99.90;;;;;;5092153;28;20039;-75
2023/08/02 04:32:20;;;;;;;2.53;1.98;;;19.90;99.90;;;;;;5094014;28;20082;-75
2023/08/02 04:34:46;;;;;;;2.63;2.00;;;19.90;99.90;;;;;;5085767;28;20036;-76
2023/08/02 04:37:11;;;;;;;2.92;2.15;;;19.80;99.90;;;;;;5073460;28;20029;-75
2023/08/02 04:39:37;;;;;;;3.10;1.48;;;19.80;99.90;;;;;;5072463;28;20140;-76
2023/08/02 04:42:03;;;;;;;2.95;1.80;;;19.80;99.90;;;;;;5073535;28;20366;-75
2023/08/02 04:44:29;;;;;;;3.47;2.40;;;19.80;99.90;;;;;;5072357;28;20111;-75
2023/08/02 04:46:54;;;;;;;2.58;1.75;;;19.80;99.90;;;;;;5073641;28;20142;-75
2023/08/02 04:49:20;;;;;;;2.20;1.65;;;19.80;99.90;;;;;;5073172;28;20120;-75
2023/08/02 04:51:46;;;;;;;2.75;2.00;;;19.80;99.90;;;;;;5073415;28;20012;-75
2023/08/02 04:54:11;;;;;;;4.22;2.13;;;19.80;99.90;;;;;;5080543;28;20503;-75
2023/08/02 04:56:40;;;;;;;4.85;2.28;;;19.80;99.90;;;;;;5093633;28;20028;-75
2023/08/02 04:59:05;;;;;;;4.32;1.83;;;19.80;99.90;;;;;;5093481;28;20024;-75
2023/08/02 05:01:31;;;;;;;3.08;1.60;;;19.80;99.90;;;;;;5082883;28;20028;-75
2023/08/02 05:03:57;;;;;;;2.25;1.38;;;19.80;99.90;;;;;;5073133;28;20070;-74
2023/08/02 05:06:23;;;;;;;2.08;1.35;;;19.90;99.90;;;;;;5071938;28;20478;-75
2023/08/02 05:08:49;;;;;;;2.50;1.90;;;19.90;99.90;;;;;;5072641;28;20033;-74
2023/08/02 05:11:15;;;;;;;2.78;1.42;;;19.90;99.90;;;;;;5072929;28;20466;-74
2023/08/02 05:13:40;;;;;;;2.83;1.50;;;19.90;99.90;;;;;;5075791;28;20034;-75
2023/08/02 05:16:12;;;;;;;1.63;1.23;;;19.90;99.90;;;;;;5075749;28;20395;-74
2023/08/02 05:18:37;;;;;;;1.65;1.17;;;19.90;99.90;;;;;;5077261;28;20096;-74
2023/08/02 05:21:13;;;;;;;1.83;1.30;;;19.90;99.90;;;;;;5072900;28;20147;-75
2023/08/02 05:23:40;;;;;;;2.28;1.40;;;19.90;99.90;;;;;;5083199;28;20350;-75
2023/08/02 05:26:06;;;;;;;2.42;1.23;;;19.90;99.90;;;;;;5087575;28;20411;-75
2023/08/02 05:28:32;;;;;;;1.60;1.10;;;19.90;99.90;;;;;;5093018;28;20085;-75
2023/08/02 05:30:58;;;;;;;2.15;1.35;;;19.90;99.90;;;;;;5093152;28;20477;-75
2023/08/02 05:33:23;;;;;;;2.80;1.30;;;19.90;99.90;;;;;;5085110;28;20039;-74
2023/08/02 05:35:49;;;;;;;1.88;1.40;;;19.90;99.90;;;;;;5076597;28;20017;-75
2023/08/02 05:38:15;;;;;;;2.38;1.17;;;19.90;99.90;;;;;;5082468;28;20035;-75
2023/08/02 05:40:40;;;;;;;2.15;1.17;;;19.90;99.90;;;;;;5072798;28;20025;-77
2023/08/02 05:43:06;;;;;;;2.17;0.85;;;19.80;99.90;;;;;;5072766;28;20111;-78
2023/08/02 05:45:32;;;;;;;1.73;1.13;;;19.90;99.90;;;;;;5072647;28;20024;-77
2023/08/02 05:47:58;;;;;;;2.25;1.05;;;19.80;99.90;;;;;;5077133;28;20028;-74
2023/08/02 05:50:25;;;;;;;1.70;1.00;;;19.80;99.90;;;;;;5081848;28;20029;-72
2023/08/02 05:52:50;;;;;;;2.25;0.90;;;19.80;99.90;;;;;;5081282;28;20021;-72
2023/08/02 05:55:16;;;;;;;2.50;1.38;;;19.90;99.90;;;;;;5075420;28;20035;-72
2023/08/02 05:57:42;;;;;;;1.50;0.77;;;19.80;99.90;;;;;;5084816;28;20540;-72
2023/08/02 06:00:08;;;;;;;0.98;0.70;;;19.80;99.90;;;;;;5096578;28;20113;-72
2023/08/02 06:02:35;;;;;;;1.52;0.63;;;19.80;99.90;;;;;;5077040;28;20020;-73
2023/08/02 06:05:01;;;;;;;1.05;0.50;;;19.80;99.90;;;;;;5076652;28;20025;-72
2023/08/02 06:07:27;;;;;;;1.60;0.73;;;19.80;99.90;;;;;;5076354;28;20028;-72
2023/08/02 06:09:52;;;;;;;1.42;0.77;;;19.90;99.90;;;;;;5094679;28;20501;-72
2023/08/02 06:12:18;;;;;;;2.08;1.10;;;19.80;99.90;;;;;;5095828;28;20048;-72
2023/08/02 06:14:43;;;;;;;2.40;0.70;;;19.70;99.90;;;;;;5095230;28;20350;-70
2023/08/02 06:17:09;;;;;;;0.80;0.47;;;19.70;99.90;;;;;;5079293;28;20078;-70
2023/08/02 06:19:34;;;;;;;1.17;0.47;;;19.70;99.90;;;;;;5075474;28;20696;-72
2023/08/02 06:22:00;;;;;;;0.98;0.60;;;19.70;99.90;;;;;;5076108;28;20025;-73
2023/08/02 06:24:26;;;;;;;2.60;0.43;;;19.70;99.90;;;;;;5075721;28;20359;-72
2023/08/02 06:26:51;;;;;;;3.10;0.50;;;19.70;99.90;;;;;;5092641;28;20047;-70
2023/08/02 06:29:17;;;;;;;2.30;0.68;;;19.70;99.90;;;;;;5095043;28;20040;-71
2023/08/02 06:31:42;;;;;;;0.98;0.40;;;19.70;99.90;;;;;;5082921;28;20036;-69
2023/08/02 06:34:08;;;;;;;1.55;0.45;;;19.70;99.90;;;;;;5096567;28;20016;-74
2023/08/02 06:36:34;;;;;;;1.15;0.45;;;19.70;99.90;;;;;;5086936;28;20043;-73
2023/08/02 06:39:00;;;;;;;1.13;0.47;;;19.80;99.90;;;;;;5074722;28;20028;-74
2023/08/02 06:41:25;;;;;;;2.40;0.50;;;19.80;99.90;;;;;;5093526;28;20028;-74
2023/08/02 06:43:51;;;;;;;3.28;0.85;;;19.80;99.90;;;;;;5092709;28;20016;-74
2023/08/02 06:46:16;;;;;;;2.17;0.40;;;19.80;99.90;;;;;;5082639;28;20032;-72
2023/08/02 06:48:42;;;;;;;1.98;0.38;;;19.80;99.90;;;;;;5075506;28;20079;-74
2023/08/02 06:51:12;;;;;;;0.95;0.32;;;19.80;99.90;;;;;;5082056;28;20048;-74
2023/08/02 06:53:37;;;;;;;1.05;0.50;;;19.80;99.90;;;;;;5085544;28;20024;-73
2023/08/02 06:56:13;;;;;;;0.60;0.10;;;19.80;99.90;;;;;;5086869;28;20501;-73
2023/08/02 06:58:40;;;;;;;0.57;0.20;;;19.80;99.90;;;;;;5088609;28;20155;-71
2023/08/02 07:01:19;;;;;;;2.22;0.25;;;19.80;99.90;;;;;;5091215;28;20032;-73
2023/08/02 07:03:46;;;;;;;1.85;0.32;;;19.80;99.90;;;;;;5078570;28;20020;-73
2023/08/02 07:06:14;;;;;;;0.98;0.20;;;19.90;99.90;;;;;;5087265;28;20024;-73
2023/08/02 07:08:40;;;;;;;2.22;0.30;;;19.80;99.90;;;;;;5088546;28;20103;-72
2023/08/02 07:11:06;;;;;;;0.60;0.30;;;19.80;99.90;;;;;;5081881;28;20032;-74
2023/08/02 07:13:33;;;;;;;1.02;0.20;;;19.90;99.90;;;;;;5080858;28;20035;-73
2023/08/02 07:15:59;;;;;;;1.48;0.30;;;19.90;99.90;;;;;;5079164;28;20028;-73
2023/08/02 07:18:25;;;;;;;0.50;0.20;;;19.90;99.90;;;;;;5078981;28;20027;-73
2023/08/02 07:20:51;;;;;;;0.70;0.13;;;19.90;99.90;;;;;;5081765;28;20020;-73
2023/08/02 07:23:16;;;;;;;0.77;0.13;;;19.90;99.90;;;;;;5080449;28;20020;-75
2023/08/02 07:25:42;;;;;;;0.70;0.20;;;19.90;99.90;;;;;;5082396;28;20469;-69
2023/08/02 07:28:08;;;;;;;1.25;0.30;;;20.00;99.90;;;;;;5091278;28;20032;-72
2023/08/02 07:30:33;;;;;;;0.65;0.20;;;19.90;99.90;;;;;;5078105;28;20064;-72
2023/08/02 07:32:59;;;;;;;0.28;0.10;;;19.90;99.90;;;;;;5081135;28;20028;-71
2023/08/02 07:35:24;;;;;;;1.20;0.20;;;19.90;99.90;;;;;;5078756;28;20020;-74
2023/08/02 07:37:50;;;;;;;1.05;0.25;;;20.00;99.90;;;;;;5085025;28;20020;-71
2023/08/02 07:40:16;;;;;;;1.55;0.30;;;20.00;99.90;;;;;;5080815;28;20039;-74
2023/08/02 07:42:42;;;;;;;2.15;0.30;;;20.00;99.90;;;;;;5078272;28;20032;-76
2023/08/02 07:45:09;;;;;;;1.45;0.38;;;20.00;99.90;;;;;;5085647;28;20115;-74
2023/08/02 07:47:36;;;;;;;1.27;0.20;;;20.00;99.90;;;;;;5087785;22;20020;-67
2023/08/02 07:50:03;;;;;;;0.98;0.20;;;20.00;99.90;;;;;;5165767;22;20079;-67
2023/08/02 07:52:29;;;;;;;2.15;0.50;;;20.10;99.90;;;;;;5073489;28;20025;-70
2023/08/02 07:54:55;;;;;;;2.05;0.20;;;20.10;99.90;;;;;;5073865;28;20043;-69
2023/08/02 07:57:26;;;;;;;2.85;0.50;;;20.20;99.90;;;;;;5073134;28;20479;-68
2023/08/02 07:59:52;;;;;;;1.80;0.50;;;20.20;99.90;;;;;;5073990;28;20031;-70
2023/08/02 08:02:19;;;;;;;2.03;0.40;;;20.20;99.90;;;;;;5071414;28;20368;-72
2023/08/02 08:04:45;;;;;;;1.48;0.50;;;20.20;99.90;;;;;;5062790;28;20039;-68
2023/08/02 08:07:11;;;;;;;2.28;0.50;;;20.20;99.90;;;;;;5067028;28;20017;-69
2023/08/02 08:09:36;;;;;;;3.38;0.60;;;20.20;99.90;;;;;;5068144;28;20839;-70
2023/08/02 08:12:06;;;;;;;1.35;0.75;;;20.20;99.90;;;;;;5070882;28;20098;-71
2023/08/02 08:14:33;;;;;;;2.15;0.60;;;20.20;99.90;;;;;;5064159;28;20036;-65
2023/08/02 08:16:59;;;;;;;1.35;0.60;;;20.20;99.90;;;;;;5057325;28;20060;-67
2023/08/02 08:19:26;;;;;;;0.90;0.60;;;20.20;99.90;;;;;;5067393;28;20032;-66
2023/08/02 08:21:52;;;;;;;1.38;0.57;;;20.30;99.90;;;;;;5070508;28;20113;-65
2023/08/02 08:24:18;;;;;;;1.85;0.73;;;20.30;99.90;;;;;;5066930;28;20016;-64
2023/08/02 08:26:44;;;;;;;1.05;0.57;;;20.30;99.90;;;;;;5064558;28;20050;-64
2023/08/02 08:29:10;;;;;;;3.47;0.80;;;20.30;99.90;;;;;;5068939;28;20103;-69
2023/08/02 08:31:36;;;;;;;0.60;0.30;;;20.30;99.90;;;;;;5066964;28;20027;-65
2023/08/02 08:34:02;;;;;;;2.05;0.80;;;20.30;99.90;;;;;;5062294;28;20047;-67
2023/08/02 08:36:29;;;;;;;2.65;0.85;;;20.40;99.90;;;;;;5065666;28;20103;-67
2023/08/02 08:38:58;;;;;;;2.58;0.60;;;20.40;99.90;;;;;;5062832;28;20021;-68
2023/08/02 08:41:23;;;;;;;1.75;0.65;;;20.40;99.90;;;;;;5066263;28;20376;-69
2023/08/02 08:43:49;;;;;;;2.53;0.90;;;20.40;99.90;;;;;;5053745;28;20120;-65
2023/08/02 08:46:15;;;;;;;2.50;0.90;;;20.40;99.90;;;;;;5060870;28;20025;-69
2023/08/02 08:48:41;;;;;;;2.03;1.10;;;20.40;99.90;;;;;;5066447;28;20036;-67
2023/08/02 08:51:10;;;;;;;2.03;1.85;;;20.40;99.90;;;;;;5067786;28;20087;-68
2023/08/02 08:53:39;;;;;;;1.42;1.33;;;20.60;99.90;;;;;;5067828;28;20028;-67
2023/08/02 08:56:05;;;;;;;2.45;2.05;;;20.60;99.90;;;;;;5063472;28;20032;-66
2023/08/02 08:58:35;;;;;;;4.90;2.47;;;20.50;99.90;;;;;;5069628;28;20384;-66
2023/08/02 09:01:04;;;;;;;2.60;2.20;;;20.50;99.90;;;;;;5069054;28;20056;-68
2023/08/02 09:03:29;;;;;;;2.83;2.47;;;20.50;99.90;;;;;;5068038;28;20042;-67
2023/08/02 09:06:03;;;;;;;4.45;2.13;;;20.50;99.90;;;;;;5068375;28;20075;-67
2023/08/02 09:08:29;;;;;;;2.17;1.98;;;20.50;99.90;;;;;;5063403;28;20032;-67
2023/08/02 09:10:54;;;;;;;2.53;2.33;;;20.50;99.90;;;;;;5064096;28;20429;-67
2023/08/02 09:13:25;;;;;;;3.10;2.20;;;20.60;99.90;;;;;;5071052;28;20028;-67
2023/08/02 09:16:08;;;;;;;2.75;2.28;;;20.60;99.90;;;;;;5058209;28;20029;-66
2023/08/02 09:18:47;;;;;;;3.72;3.42;;;20.70;99.90;;;;;;5068526;28;20538;-67
2023/08/02 09:21:22;;;;;;;3.50;0.98;;;20.80;99.90;;;;;;5060798;28;20112;-67
2023/08/02 09:23:55;;;;;;;2.38;1.05;;;20.80;99.90;;;;;;5065489;28;20029;-70
2023/08/02 09:26:21;;;;;;;4.95;1.70;;;20.60;99.90;;;;;;5067434;28;20380;-67
2023/08/02 09:29:04;;;;;;;4.75;1.40;;;20.70;99.90;;;;;;5069212;28;20544;-68
2023/08/02 09:31:32;;;;;;;2.15;0.57;;;20.70;99.90;;;;;;5056562;28;20040;-67
2023/08/02 09:33:58;;;;;;;2.30;0.82;;;20.70;99.90;;;;;;5065294;28;20081;-67
2023/08/02 09:36:27;;;;;;;2.10;0.65;;;20.80;99.90;;;;;;5062111;28;20040;-66
2023/08/02 09:39:01;;;;;;;3.20;0.50;;;20.70;99.90;;;;;;5063400;28;20020;-67
2023/08/02 09:41:28;;;;;;;1.13;0.43;;;20.80;99.90;;;;;;5070286;28;20028;-68
2023/08/02 09:43:54;;;;;;;2.65;0.52;;;20.70;99.90;;;;;;5065822;28;20052;-68
2023/08/02 09:46:34;;;;;;;1.48;0.50;;;20.60;99.90;;;;;;5065585;28;20043;-67
2023/08/02 09:49:02;;;;;;;1.63;0.57;;;20.60;99.90;;;;;;5102708;22;20033;-71
2023/08/02 09:51:41;;;;;;;2.97;0.70;;;20.60;99.90;;;;;;5067643;28;20493;-74
2023/08/02 09:54:11;;;;;;;3.75;0.52;;;20.50;99.90;;;;;;5063609;28;20044;-74
2023/08/02 09:56:38;;;;;;;2.30;0.40;;;20.40;99.90;;;;;;5069134;28;20101;-73
2023/08/02 09:59:05;;;;;;;4.88;0.47;;;20.40;99.90;;;;;;5070410;28;20166;-71
2023/08/02 10:01:32;;;;;;;1.55;0.68;;;20.40;99.90;;;;;;5066673;28;20385;-72
2023/08/02 10:04:02;;;;;;;6.00;1.20;;;20.50;99.90;;;;;;5069747;28;20039;-72
2023/08/02 10:06:51;;;;;;;5.57;0.70;;;20.50;99.90;;;;;;5076706;28;20489;-77
2023/08/02 10:09:31;;;;;;;5.60;1.25;;;20.40;99.90;;;;;;5072674;28;20028;-70
2023/08/02 10:12:05;;;;;;;5.43;1.23;;;20.50;99.90;;;;;;5069344;28;20465;-71
2023/08/02 10:14:31;;;;;;;4.47;1.38;;;20.60;99.90;;;;;;5061702;28;20093;-72
2023/08/02 10:17:01;;;;;;;4.15;1.10;;;20.60;99.90;;;;;;5067799;28;20044;-74
2023/08/02 10:19:32;;;;;;;5.43;1.55;;;20.70;99.90;;;;;;5066788;28;20020;-72
2023/08/02 10:21:58;;;;;;;8.55;1.63;;;20.70;99.90;;;;;;5067608;28;20068;-71
2023/08/02 10:24:28;;;;;;;6.78;1.38;;;20.80;99.90;;;;;;5068866;28;20025;-74
2023/08/02 10:26:56;;;;;;;8.80;2.08;;;20.90;99.90;;;;;;5064104;28;20182;-72
2023/08/02 10:29:27;;;;;;;9.20;1.58;;;20.90;99.90;;;;;;5068267;28;20389;-75
2023/08/02 10:31:53;;;;;;;7.20;1.63;;;20.90;99.90;;;;;;5065722;28;20469;-71
2023/08/02 10:34:34;;;;;;;6.85;1.40;;;21.00;99.90;;;;;;5068635;28;20107;-70
2023/08/02 10:37:00;;;;;;;8.55;1.80;;;21.10;99.90;;;;;;5063704;28;20478;-71
2023/08/02 10:39:53;;;;;;;9.48;1.75;;;21.00;99.90;;;;;;5063973;28;20025;-72
2023/08/02 10:42:31;;;;;;;8.02;1.48;;;20.90;99.90;;;;;;5064860;28;20028;-70
2023/08/02 10:44:56;;;;;;;10.55;2.20;;;20.80;99.90;;;;;;5066092;28;20103;-70
2023/08/02 10:47:28;;;;;;;7.20;1.63;;;20.90;99.90;;;;;;5071913;28;20123;-71
2023/08/02 10:49:54;;;;;;;7.13;1.08;;;20.80;99.90;;;;;;5065203;28;20033;-72
2023/08/02 10:52:30;;;;;;;4.85;1.10;;;20.90;99.90;;;;;;5070732;28;20366;-71
2023/08/02 10:55:03;;;;;;;3.95;1.02;;;21.00;99.90;;;;;;5071267;28;20104;-72
2023/08/02 10:57:29;;;;;;;7.75;1.25;;;21.10;99.90;;;;;;5070529;28;20021;-73
2023/08/02 10:59:55;;;;;;;4.70;1.17;;;21.20;99.90;;;;;;5070617;28;20454;-72
2023/08/02 11:02:22;;;;;;;5.20;1.13;;;21.20;99.90;;;;;;5061764;28;20103;-72
2023/08/02 11:04:48;;;;;;;5.72;0.95;;;21.20;99.90;;;;;;5069821;28;20484;-71
2023/08/02 11:07:17;;;;;;;4.38;0.82;;;21.30;99.90;;;;;;5069857;28;20020;-72
2023/08/02 11:09:45;;;;;;;1.65;0.47;;;21.30;99.90;;;;;;5068360;28;20085;-71
2023/08/02 11:12:12;;;;;;;2.20;0.68;;;21.30;99.90;;;;;;5068304;28;20020;-71
2023/08/02 11:14:39;;;;;;;2.88;0.85;;;21.30;99.90;;;;;;5069640;28;20089;-74
2023/08/02 11:17:05;;;;;;;4.47;1.17;;;21.30;99.90;;;;;;5070916;28;20033;-74
2023/08/02 11:19:31;;;;;;;14.40;1.40;;;21.30;99.90;;;;;;5071399;28;20035;-72
2023/08/02 11:21:59;;;;;;;2.17;0.55;;;21.40;99.90;;;;;;5070608;28;20028;-73
2023/08/02 11:24:25;;;;;;;4.10;0.50;;;21.50;99.90;;;;;;5069472;28;20017;-74
2023/08/02 11:26:59;;;;;;;4.13;0.50;;;21.40;99.90;;;;;;5071476;28;20031;-73
2023/08/02 11:29:25;;;;;;;5.38;0.90;;;21.40;99.90;;;;;;5072774;28;20040;-74
2023/08/02 11:31:52;;;;;;;3.40;0.40;;;21.50;99.90;;;;;;5074001;28;20099;-73
2023/08/02 11:34:19;;;;;;;4.70;0.70;;;21.50;99.90;;;;;;5074555;28;20016;-76
2023/08/02 11:36:48;;;;;;;5.05;1.75;;;21.60;99.90;;;;;;5074202;28;20031;-71
2023/08/02 11:39:15;;;;;;;3.60;0.80;;;21.70;99.90;;;;;;5072474;28;20081;-75
2023/08/02 11:41:41;;;;;;;5.50;0.90;;;21.60;99.90;;;;;;5072226;28;20039;-75
2023/08/02 11:44:19;;;;;;;7.88;1.10;;;21.60;99.90;;;;;;5074499;28;20036;-72
2023/08/02 11:46:54;;;;;;;3.58;0.90;;;21.50;99.90;;;;;;5071781;28;20021;-75
2023/08/02 11:49:20;;;;;;;5.82;1.30;;;21.50;99.90;;;;;;5070367;28;20515;-73
2023/08/02 11:51:46;;;;;;;4.10;0.73;;;21.60;99.90;;;;;;5065972;28;20029;-75
2023/08/02 11:54:13;;;;;;;4.25;1.17;;;21.60;99.90;;;;;;5054550;28;20032;-73
2023/08/02 11:56:39;;;;;;;7.30;1.38;;;21.50;99.90;;;;;;5061437;28;20013;-77
2023/08/02 11:59:11;;;;;;;4.97;1.38;;;21.50;99.90;;;;;;5071040;28;20487;-75
2023/08/02 12:01:41;;;;;;;6.38;1.20;;;21.60;99.90;;;;;;5072719;28;20023;-77
2023/08/02 12:04:08;;;;;;;9.70;1.35;;;21.60;99.90;;;;;;5070808;28;20059;-77
2023/08/02 12:06:51;;;;;;;9.75;1.55;;;21.70;99.90;;;;;;5072228;28;20021;-75
2023/08/02 12:09:36;;;;;;;7.13;1.25;;;21.70;99.90;;;;;;5053741;28;20053;-77
2023/08/02 12:12:02;;;;;;;3.20;0.95;;;21.70;99.90;;;;;;5069941;28;20072;-76
2023/08/02 12:14:29;;;;;;;4.38;1.10;;;21.60;99.90;;;;;;5070599;28;20070;-77
2023/08/02 12:16:55;;;;;;;4.40;0.75;;;21.60;99.90;;;;;;5064040;28;20521;-77
2023/08/02 12:19:35;;;;;;;5.45;0.77;;;21.60;99.90;;;;;;5064333;28;20042;-75
2023/08/02 12:22:01;;;;;;;2.20;0.50;;;21.60;99.90;;;;;;5052088;28;20058;-73
2023/08/02 12:24:27;;;;;;;3.33;0.77;;;21.60;99.80;;;;;;5052159;28;20064;-77
2023/08/02 12:26:52;;;;;;;2.20;0.47;;;21.70;99.70;;;;;;5061441;28;20074;-77
2023/08/02 12:29:23;;;;;;;1.48;0.20;;;21.80;99.20;;;;;;5070160;28;20499;-78
2023/08/02 12:31:49;;;;;;;2.20;0.35;;;21.70;99.00;;;;;;5071156;28;20103;-78
2023/08/02 12:34:14;;;;;;;3.53;0.55;;;21.70;98.90;;;;;;5071481;28;20059;-78
2023/08/02 12:36:40;;;;;;;2.30;0.20;;;21.80;98.30;;;;;;5062292;28;20092;-78
2023/08/02 12:39:06;;;;;;;2.67;0.52;;;21.80;98.00;;;;;;5053586;28;20025;-78
2023/08/02 12:41:31;;;;;;;2.38;0.40;;;21.90;97.90;;;;;;5063104;28;20534;-76
2023/08/02 12:43:57;;;;;;;2.78;0.30;;;22.00;97.40;;;;;;5069143;28;20077;-78
2023/08/02 12:46:23;;;;;;;3.47;0.43;;;22.10;97.60;;;;;;5059291;28;20028;-76